sensor_id;sensor_type;location;lat;lon;timestamp;P1;durP1;ratioP1;P2;durP2;ratioP2
79592;SDS011;69074;45.164;9.704;2023-05-20T00:01:07;20.1;;;17.7;;
79592;SDS011;69074;45.164;9.704;2023-05-20T00:03:32;20.1;;;17.7;;
79592;SDS011;69074;45.164;9.704;2023-05-20T00:05:57;18.9;;;16.7;;
79592;SDS011;69074;45.164;9.704;2023-05-20T00:08:22;18.9;;;16.7;;
79592;SDS011;69074;45.164;9.704;2023-05-20T00:10:47;18.9;;;16.7;;
79592;SDS011;69074;45.164;9.704;2023-05-20T00:13:12;18.9;;;16.7;;
79592;SDS011;69074;45.164;9.704;2023-05-20T00:15:37;18.9;;;16.7;;
79592;SDS011;69074;45.164;9.704;2023-05-20T00:18:02;18.9;;;16.7;;
79592;SDS011;69074;45.164;9.704;2023-05-20T00:20:27;18.1;;;15.6;;
79592;SDS011;69074;45.164;9.704;2023-05-20T00:22:52;18.1;;;15.6;;
79592;SDS011;69074;45.164;9.704;2023-05-20T00:25:17;18.1;;;15.6;;
79592;SDS011;69074;45.164;9.704;2023-05-20T00:27:42;18.1;;;15.6;;
79592;SDS011;69074;45.164;9.704;2023-05-20T00:30:07;18.1;;;15.6;;
79592;SDS011;69074;45.164;9.704;2023-05-20T00:32:32;18.1;;;15.6;;
79592;SDS011;69074;45.164;9.704;2023-05-20T00:34:57;15.3;;;13.7;;
79592;SDS011;69074;45.164;9.704;2023-05-20T00:37:22;15.3;;;13.7;;
79592;SDS011;69074;45.164;9.704;2023-05-20T00:39:47;15.3;;;13.7;;
79592;SDS011;69074;45.164;9.704;2023-05-20T00:42:18;15.3;;;13.7;;
79592;SDS011;69074;45.164;9.704;2023-05-20T00:44:37;15.3;;;13.7;;
79592;SDS011;69074;45.164;9.704;2023-05-20T00:47:02;15.3;;;13.7;;
79592;SDS011;69074;45.164;9.704;2023-05-20T00:49:27;13.4;;;11.8;;
79592;SDS011;69074;45.164;9.704;2023-05-20T00:51:52;13.4;;;11.8;;
79592;SDS011;69074;45.164;9.704;2023-05-20T00:54:17;13.4;;;11.8;;
79592;SDS011;69074;45.164;9.704;2023-05-20T00:56:42;13.4;;;11.8;;
79592;SDS011;69074;45.164;9.704;2023-05-20T00:59:07;13.4;;;11.8;;
79592;SDS011;69074;45.164;9.704;2023-05-20T01:01:32;13.4;;;11.8;;
79592;SDS011;69074;45.164;9.704;2023-05-20T01:03:57;13.4;;;11.8;;
79592;SDS011;69074;45.164;9.704;2023-05-20T01:06:22;13.2;;;10.0;;
79592;SDS011;69074;45.164;9.704;2023-05-20T01:08:47;13.2;;;10.0;;
79592;SDS011;69074;45.164;9.704;2023-05-20T01:11:13;13.2;;;10.0;;
79592;SDS011;69074;45.164;9.704;2023-05-20T01:13:38;13.2;;;10.0;;
79592;SDS011;69074;45.164;9.704;2023-05-20T01:16:02;13.2;;;10.0;;
79592;SDS011;69074;45.164;9.704;2023-05-20T01:18:27;13.2;;;10.0;;
79592;SDS011;69074;45.164;9.704;2023-05-20T01:20:52;10.4;;;8.6;;
79592;SDS011;69074;45.164;9.704;2023-05-20T01:23:17;10.4;;;8.6;;
79592;SDS011;69074;45.164;9.704;2023-05-20T01:25:42;10.4;;;8.6;;
79592;SDS011;69074;45.164;9.704;2023-05-20T01:28:07;10.4;;;8.6;;
79592;SDS011;69074;45.164;9.704;2023-05-20T01:30:33;10.4;;;8.6;;
79592;SDS011;69074;45.164;9.704;2023-05-20T01:32:58;10.4;;;8.6;;
79592;SDS011;69074;45.164;9.704;2023-05-20T01:35:22;11.9;;;8.6;;
79592;SDS011;69074;45.164;9.704;2023-05-20T01:37:47;11.9;;;8.6;;
79592;SDS011;69074;45.164;9.704;2023-05-20T01:40:13;11.9;;;8.6;;
79592;SDS011;69074;45.164;9.704;2023-05-20T01:42:37;11.9;;;8.6;;
79592;SDS011;69074;45.164;9.704;2023-05-20T01:45:02;11.9;;;8.6;;
79592;SDS011;69074;45.164;9.704;2023-05-20T01:47:27;11.9;;;8.6;;
79592;SDS011;69074;45.164;9.704;2023-05-20T01:49:52;9.2;;;7.6;;
79592;SDS011;69074;45.164;9.704;2023-05-20T01:52:17;9.2;;;7.6;;
79592;SDS011;69074;45.164;9.704;2023-05-20T01:54:42;9.2;;;7.6;;
79592;SDS011;69074;45.164;9.704;2023-05-20T01:57:07;9.2;;;7.6;;
79592;SDS011;69074;45.164;9.704;2023-05-20T01:59:32;9.2;;;7.6;;
79592;SDS011;69074;45.164;9.704;2023-05-20T02:01:57;9.2;;;7.6;;
79592;SDS011;69074;45.164;9.704;2023-05-20T02:04:22;11.6;;;6.9;;
79592;SDS011;69074;45.164;9.704;2023-05-20T02:06:47;11.6;;;6.9;;
79592;SDS011;69074;45.164;9.704;2023-05-20T02:09:12;11.6;;;6.9;;
79592;SDS011;69074;45.164;9.704;2023-05-20T02:11:37;11.6;;;6.9;;
79592;SDS011;69074;45.164;9.704;2023-05-20T02:14:02;11.6;;;6.9;;
79592;SDS011;69074;45.164;9.704;2023-05-20T02:16:27;11.6;;;6.9;;
79592;SDS011;69074;45.164;9.704;2023-05-20T02:18:52;11.6;;;6.9;;
79592;SDS011;69074;45.164;9.704;2023-05-20T02:21:17;8.8;;;6.8;;
79592;SDS011;69074;45.164;9.704;2023-05-20T02:23:42;8.8;;;6.8;;
79592;SDS011;69074;45.164;9.704;2023-05-20T02:26:07;8.8;;;6.8;;
79592;SDS011;69074;45.164;9.704;2023-05-20T02:28:32;8.8;;;6.8;;
79592;SDS011;69074;45.164;9.704;2023-05-20T02:30:57;8.8;;;6.8;;
79592;SDS011;69074;45.164;9.704;2023-05-20T02:33:22;8.8;;;6.8;;
79592;SDS011;69074;45.164;9.704;2023-05-20T02:35:47;7.0;;;6.3;;
79592;SDS011;69074;45.164;9.704;2023-05-20T02:38:12;7.0;;;6.3;;
79592;SDS011;69074;45.164;9.704;2023-05-20T02:40:37;7.0;;;6.3;;
79592;SDS011;69074;45.164;9.704;2023-05-20T02:43:02;7.0;;;6.3;;
79592;SDS011;69074;45.164;9.704;2023-05-20T02:45:27;7.0;;;6.3;;
79592;SDS011;69074;45.164;9.704;2023-05-20T02:47:52;7.0;;;6.3;;
79592;SDS011;69074;45.164;9.704;2023-05-20T02:50:17;8.9;;;7.3;;
79592;SDS011;69074;45.164;9.704;2023-05-20T02:52:42;8.9;;;7.3;;
79592;SDS011;69074;45.164;9.704;2023-05-20T02:55:07;8.9;;;7.3;;
79592;SDS011;69074;45.164;9.704;2023-05-20T02:57:32;8.9;;;7.3;;
79592;SDS011;69074;45.164;9.704;2023-05-20T02:59:57;8.9;;;7.3;;
79592;SDS011;69074;45.164;9.704;2023-05-20T03:02:22;8.9;;;7.3;;
79592;SDS011;69074;45.164;9.704;2023-05-20T03:04:47;7.8;;;7.0;;
79592;SDS011;69074;45.164;9.704;2023-05-20T03:07:12;7.8;;;7.0;;
79592;SDS011;69074;45.164;9.704;2023-05-20T03:09:37;7.8;;;7.0;;
79592;SDS011;69074;45.164;9.704;2023-05-20T03:12:02;7.8;;;7.0;;
79592;SDS011;69074;45.164;9.704;2023-05-20T03:14:27;7.8;;;7.0;;
79592;SDS011;69074;45.164;9.704;2023-05-20T03:16:52;7.8;;;7.0;;
79592;SDS011;69074;45.164;9.704;2023-05-20T03:19:17;8.9;;;6.5;;
79592;SDS011;69074;45.164;9.704;2023-05-20T03:21:42;8.9;;;6.5;;
79592;SDS011;69074;45.164;9.704;2023-05-20T03:24:07;8.9;;;6.5;;
79592;SDS011;69074;45.164;9.704;2023-05-20T03:26:32;8.9;;;6.5;;
79592;SDS011;69074;45.164;9.704;2023-05-20T03:28:57;8.9;;;6.5;;
79592;SDS011;69074;45.164;9.704;2023-05-20T03:31:22;8.9;;;6.5;;
79592;SDS011;69074;45.164;9.704;2023-05-20T03:33:47;8.9;;;6.5;;
79592;SDS011;69074;45.164;9.704;2023-05-20T03:36:12;11.7;;;8.1;;
79592;SDS011;69074;45.164;9.704;2023-05-20T03:38:37;11.7;;;8.1;;
79592;SDS011;69074;45.164;9.704;2023-05-20T03:41:02;11.7;;;8.1;;
79592;SDS011;69074;45.164;9.704;2023-05-20T03:43:27;11.7;;;8.1;;
79592;SDS011;69074;45.164;9.704;2023-05-20T03:45:52;11.7;;;8.1;;
79592;SDS011;69074;45.164;9.704;2023-05-20T03:48:17;11.7;;;8.1;;
79592;SDS011;69074;45.164;9.704;2023-05-20T03:50:42;9.1;;;7.5;;
79592;SDS011;69074;45.164;9.704;2023-05-20T03:53:07;9.1;;;7.5;;
79592;SDS011;69074;45.164;9.704;2023-05-20T03:55:32;9.1;;;7.5;;
79592;SDS011;69074;45.164;9.704;2023-05-20T03:57:57;9.1;;;7.5;;
79592;SDS011;69074;45.164;9.704;2023-05-20T04:00:22;9.1;;;7.5;;
79592;SDS011;69074;45.164;9.704;2023-05-20T04:02:47;9.1;;;7.5;;
79592;SDS011;69074;45.164;9.704;2023-05-20T04:05:12;11.4;;;7.9;;
79592;SDS011;69074;45.164;9.704;2023-05-20T04:07:37;11.4;;;7.9;;
79592;SDS011;69074;45.164;9.704;2023-05-20T04:10:02;11.4;;;7.9;;
79592;SDS011;69074;45.164;9.704;2023-05-20T04:12:27;11.4;;;7.9;;
79592;SDS011;69074;45.164;9.704;2023-05-20T04:14:52;11.4;;;7.9;;
79592;SDS011;69074;45.164;9.704;2023-05-20T04:17:17;11.4;;;7.9;;
79592;SDS011;69074;45.164;9.704;2023-05-20T04:19:42;13.7;;;10.2;;
79592;SDS011;69074;45.164;9.704;2023-05-20T04:22:07;13.7;;;10.2;;
79592;SDS011;69074;45.164;9.704;2023-05-20T04:24:32;13.7;;;10.2;;
79592;SDS011;69074;45.164;9.704;2023-05-20T04:26:57;13.7;;;10.2;;
79592;SDS011;69074;45.164;9.704;2023-05-20T04:29:22;13.7;;;10.2;;
79592;SDS011;69074;45.164;9.704;2023-05-20T04:31:47;13.7;;;10.2;;
79592;SDS011;69074;45.164;9.704;2023-05-20T04:34:12;14.1;;;10.5;;
79592;SDS011;69074;45.164;9.704;2023-05-20T04:36:37;14.1;;;10.5;;
79592;SDS011;69074;45.164;9.704;2023-05-20T04:39:02;14.1;;;10.5;;
79592;SDS011;69074;45.164;9.704;2023-05-20T04:41:27;14.1;;;10.5;;
79592;SDS011;69074;45.164;9.704;2023-05-20T04:43:52;14.1;;;10.5;;
79592;SDS011;69074;45.164;9.704;2023-05-20T04:46:17;14.1;;;10.5;;
79592;SDS011;69074;45.164;9.704;2023-05-20T04:48:42;14.1;;;10.5;;
79592;SDS011;69074;45.164;9.704;2023-05-20T04:51:07;13.5;;;10.6;;
79592;SDS011;69074;45.164;9.704;2023-05-20T04:53:32;13.5;;;10.6;;
79592;SDS011;69074;45.164;9.704;2023-05-20T04:55:57;13.5;;;10.6;;
79592;SDS011;69074;45.164;9.704;2023-05-20T04:58:22;13.5;;;10.6;;
79592;SDS011;69074;45.164;9.704;2023-05-20T05:00:47;13.5;;;10.6;;
79592;SDS011;69074;45.164;9.704;2023-05-20T05:03:12;13.5;;;10.6;;
79592;SDS011;69074;45.164;9.704;2023-05-20T05:05:37;15.9;;;12.7;;
79592;SDS011;69074;45.164;9.704;2023-05-20T05:08:02;15.9;;;12.7;;
79592;SDS011;69074;45.164;9.704;2023-05-20T05:10:27;15.9;;;12.7;;
79592;SDS011;69074;45.164;9.704;2023-05-20T05:12:52;15.9;;;12.7;;
79592;SDS011;69074;45.164;9.704;2023-05-20T05:15:17;15.9;;;12.7;;
79592;SDS011;69074;45.164;9.704;2023-05-20T05:17:42;15.9;;;12.7;;
79592;SDS011;69074;45.164;9.704;2023-05-20T05:20:07;17.1;;;12.8;;
79592;SDS011;69074;45.164;9.704;2023-05-20T05:22:32;17.1;;;12.8;;
79592;SDS011;69074;45.164;9.704;2023-05-20T05:24:57;17.1;;;12.8;;
79592;SDS011;69074;45.164;9.704;2023-05-20T05:27:22;17.1;;;12.8;;
79592;SDS011;69074;45.164;9.704;2023-05-20T05:29:47;17.1;;;12.8;;
79592;SDS011;69074;45.164;9.704;2023-05-20T05:32:12;17.1;;;12.8;;
79592;SDS011;69074;45.164;9.704;2023-05-20T05:34:37;15.6;;;13.9;;
79592;SDS011;69074;45.164;9.704;2023-05-20T05:37:02;15.6;;;13.9;;
79592;SDS011;69074;45.164;9.704;2023-05-20T05:39:27;15.6;;;13.9;;
79592;SDS011;69074;45.164;9.704;2023-05-20T05:41:52;15.6;;;13.9;;
79592;SDS011;69074;45.164;9.704;2023-05-20T05:44:17;15.6;;;13.9;;
79592;SDS011;69074;45.164;9.704;2023-05-20T05:46:42;15.6;;;13.9;;
79592;SDS011;69074;45.164;9.704;2023-05-20T05:49:07;16.5;;;13.0;;
79592;SDS011;69074;45.164;9.704;2023-05-20T05:51:32;16.5;;;13.0;;
79592;SDS011;69074;45.164;9.704;2023-05-20T05:53:57;16.5;;;13.0;;
79592;SDS011;69074;45.164;9.704;2023-05-20T05:56:22;16.5;;;13.0;;
79592;SDS011;69074;45.164;9.704;2023-05-20T05:58:47;16.5;;;13.0;;
79592;SDS011;69074;45.164;9.704;2023-05-20T06:01:12;16.5;;;13.0;;
79592;SDS011;69074;45.164;9.704;2023-05-20T06:03:37;16.5;;;13.0;;
79592;SDS011;69074;45.164;9.704;2023-05-20T06:06:02;20.1;;;13.6;;
79592;SDS011;69074;45.164;9.704;2023-05-20T06:08:27;20.1;;;13.6;;
79592;SDS011;69074;45.164;9.704;2023-05-20T06:10:52;20.1;;;13.6;;
79592;SDS011;69074;45.164;9.704;2023-05-20T06:13:17;20.1;;;13.6;;
79592;SDS011;69074;45.164;9.704;2023-05-20T06:15:42;20.1;;;13.6;;
79592;SDS011;69074;45.164;9.704;2023-05-20T06:18:07;20.1;;;13.6;;
79592;SDS011;69074;45.164;9.704;2023-05-20T06:20:32;18.1;;;13.0;;
79592;SDS011;69074;45.164;9.704;2023-05-20T06:22:57;18.1;;;13.0;;
79592;SDS011;69074;45.164;9.704;2023-05-20T06:25:22;18.1;;;13.0;;
79592;SDS011;69074;45.164;9.704;2023-05-20T06:27:47;18.1;;;13.0;;
79592;SDS011;69074;45.164;9.704;2023-05-20T06:30:12;18.1;;;13.0;;
79592;SDS011;69074;45.164;9.704;2023-05-20T06:32:37;18.1;;;13.0;;
79592;SDS011;69074;45.164;9.704;2023-05-20T06:35:02;19.3;;;14.3;;
79592;SDS011;69074;45.164;9.704;2023-05-20T06:37:27;19.3;;;14.3;;
79592;SDS011;69074;45.164;9.704;2023-05-20T06:39:52;19.3;;;14.3;;
79592;SDS011;69074;45.164;9.704;2023-05-20T06:42:17;19.3;;;14.3;;
79592;SDS011;69074;45.164;9.704;2023-05-20T06:44:42;19.3;;;14.3;;
79592;SDS011;69074;45.164;9.704;2023-05-20T06:47:07;19.3;;;14.3;;
79592;SDS011;69074;45.164;9.704;2023-05-20T06:49:32;14.1;;;11.7;;
79592;SDS011;69074;45.164;9.704;2023-05-20T06:51:57;14.1;;;11.7;;
79592;SDS011;69074;45.164;9.704;2023-05-20T06:54:22;14.1;;;11.7;;
79592;SDS011;69074;45.164;9.704;2023-05-20T06:56:47;14.1;;;11.7;;
79592;SDS011;69074;45.164;9.704;2023-05-20T06:59:12;14.1;;;11.7;;
79592;SDS011;69074;45.164;9.704;2023-05-20T07:01:37;14.1;;;11.7;;
79592;SDS011;69074;45.164;9.704;2023-05-20T07:04:02;14.1;;;11.7;;
79592;SDS011;69074;45.164;9.704;2023-05-20T07:06:27;15.5;;;12.0;;
79592;SDS011;69074;45.164;9.704;2023-05-20T07:08:52;15.5;;;12.0;;
79592;SDS011;69074;45.164;9.704;2023-05-20T07:11:17;15.5;;;12.0;;
79592;SDS011;69074;45.164;9.704;2023-05-20T07:13:42;15.5;;;12.0;;
79592;SDS011;69074;45.164;9.704;2023-05-20T07:16:07;15.5;;;12.0;;
79592;SDS011;69074;45.164;9.704;2023-05-20T07:18:32;15.5;;;12.0;;
79592;SDS011;69074;45.164;9.704;2023-05-20T07:20:57;20.5;;;15.3;;
79592;SDS011;69074;45.164;9.704;2023-05-20T07:23:22;20.5;;;15.3;;
79592;SDS011;69074;45.164;9.704;2023-05-20T07:25:47;20.5;;;15.3;;
79592;SDS011;69074;45.164;9.704;2023-05-20T07:28:14;20.5;;;15.3;;
79592;SDS011;69074;45.164;9.704;2023-05-20T07:30:37;20.5;;;15.3;;
79592;SDS011;69074;45.164;9.704;2023-05-20T07:33:02;20.5;;;15.3;;
79592;SDS011;69074;45.164;9.704;2023-05-20T07:35:27;20.4;;;17.0;;
79592;SDS011;69074;45.164;9.704;2023-05-20T07:37:52;20.4;;;17.0;;
79592;SDS011;69074;45.164;9.704;2023-05-20T07:40:17;20.4;;;17.0;;
79592;SDS011;69074;45.164;9.704;2023-05-20T07:42:42;20.4;;;17.0;;
79592;SDS011;69074;45.164;9.704;2023-05-20T07:45:07;20.4;;;17.0;;
79592;SDS011;69074;45.164;9.704;2023-05-20T07:47:32;20.4;;;17.0;;
79592;SDS011;69074;45.164;9.704;2023-05-20T07:49:57;24.7;;;19.5;;
79592;SDS011;69074;45.164;9.704;2023-05-20T07:52:22;24.7;;;19.5;;
79592;SDS011;69074;45.164;9.704;2023-05-20T07:54:47;24.7;;;19.5;;
79592;SDS011;69074;45.164;9.704;2023-05-20T07:57:12;24.7;;;19.5;;
79592;SDS011;69074;45.164;9.704;2023-05-20T07:59:37;24.7;;;19.5;;
79592;SDS011;69074;45.164;9.704;2023-05-20T08:02:02;24.7;;;19.5;;
79592;SDS011;69074;45.164;9.704;2023-05-20T08:04:27;22.5;;;18.5;;
79592;SDS011;69074;45.164;9.704;2023-05-20T08:06:52;22.5;;;18.5;;
79592;SDS011;69074;45.164;9.704;2023-05-20T08:09:17;22.5;;;18.5;;
79592;SDS011;69074;45.164;9.704;2023-05-20T08:11:42;22.5;;;18.5;;
79592;SDS011;69074;45.164;9.704;2023-05-20T08:14:07;22.5;;;18.5;;
79592;SDS011;69074;45.164;9.704;2023-05-20T08:16:32;22.5;;;18.5;;
79592;SDS011;69074;45.164;9.704;2023-05-20T08:18:57;22.5;;;18.5;;
79592;SDS011;69074;45.164;9.704;2023-05-20T08:21:22;19.2;;;17.0;;
79592;SDS011;69074;45.164;9.704;2023-05-20T08:23:47;19.2;;;17.0;;
79592;SDS011;69074;45.164;9.704;2023-05-20T08:26:12;19.2;;;17.0;;
79592;SDS011;69074;45.164;9.704;2023-05-20T08:28:37;19.2;;;17.0;;
79592;SDS011;69074;45.164;9.704;2023-05-20T08:31:02;19.2;;;17.0;;
79592;SDS011;69074;45.164;9.704;2023-05-20T08:33:27;19.2;;;17.0;;
79592;SDS011;69074;45.164;9.704;2023-05-20T08:35:52;19.0;;;16.3;;
79592;SDS011;69074;45.164;9.704;2023-05-20T08:38:17;19.0;;;16.3;;
79592;SDS011;69074;45.164;9.704;2023-05-20T08:40:42;19.0;;;16.3;;
79592;SDS011;69074;45.164;9.704;2023-05-20T08:43:07;19.0;;;16.3;;
79592;SDS011;69074;45.164;9.704;2023-05-20T08:45:32;19.0;;;16.3;;
79592;SDS011;69074;45.164;9.704;2023-05-20T08:47:57;19.0;;;16.3;;
79592;SDS011;69074;45.164;9.704;2023-05-20T08:50:22;20.2;;;15.7;;
79592;SDS011;69074;45.164;9.704;2023-05-20T08:52:47;20.2;;;15.7;;
79592;SDS011;69074;45.164;9.704;2023-05-20T08:55:13;20.2;;;15.7;;
79592;SDS011;69074;45.164;9.704;2023-05-20T08:57:37;20.2;;;15.7;;
79592;SDS011;69074;45.164;9.704;2023-05-20T09:00:02;20.2;;;15.7;;
79592;SDS011;69074;45.164;9.704;2023-05-20T09:02:27;20.2;;;15.7;;
79592;SDS011;69074;45.164;9.704;2023-05-20T09:04:52;16.8;;;14.5;;
79592;SDS011;69074;45.164;9.704;2023-05-20T09:07:25;16.8;;;14.5;;
79592;SDS011;69074;45.164;9.704;2023-05-20T09:09:42;16.8;;;14.5;;
79592;SDS011;69074;45.164;9.704;2023-05-20T09:12:07;16.8;;;14.5;;
79592;SDS011;69074;45.164;9.704;2023-05-20T09:14:32;16.8;;;14.5;;
79592;SDS011;69074;45.164;9.704;2023-05-20T09:16:57;16.8;;;14.5;;
79592;SDS011;69074;45.164;9.704;2023-05-20T09:19:22;17.6;;;13.3;;
79592;SDS011;69074;45.164;9.704;2023-05-20T09:21:47;17.6;;;13.3;;
79592;SDS011;69074;45.164;9.704;2023-05-20T09:24:12;17.6;;;13.3;;
79592;SDS011;69074;45.164;9.704;2023-05-20T09:26:37;17.6;;;13.3;;
79592;SDS011;69074;45.164;9.704;2023-05-20T09:29:02;17.6;;;13.3;;
79592;SDS011;69074;45.164;9.704;2023-05-20T09:31:27;17.6;;;13.3;;
79592;SDS011;69074;45.164;9.704;2023-05-20T09:33:52;17.6;;;13.3;;
79592;SDS011;69074;45.164;9.704;2023-05-20T09:36:17;13.6;;;12.2;;
79592;SDS011;69074;45.164;9.704;2023-05-20T09:38:42;13.6;;;12.2;;
79592;SDS011;69074;45.164;9.704;2023-05-20T09:41:08;13.6;;;12.2;;
79592;SDS011;69074;45.164;9.704;2023-05-20T09:43:32;13.6;;;12.2;;
79592;SDS011;69074;45.164;9.704;2023-05-20T09:45:57;13.6;;;12.2;;
79592;SDS011;69074;45.164;9.704;2023-05-20T09:48:22;13.6;;;12.2;;
79592;SDS011;69074;45.164;9.704;2023-05-20T09:50:47;12.5;;;11.2;;
79592;SDS011;69074;45.164;9.704;2023-05-20T09:53:12;12.5;;;11.2;;
79592;SDS011;69074;45.164;9.704;2023-05-20T09:55:37;12.5;;;11.2;;
79592;SDS011;69074;45.164;9.704;2023-05-20T09:58:02;12.5;;;11.2;;
79592;SDS011;69074;45.164;9.704;2023-05-20T10:00:27;12.5;;;11.2;;
79592;SDS011;69074;45.164;9.704;2023-05-20T10:02:52;12.5;;;11.2;;
79592;SDS011;69074;45.164;9.704;2023-05-20T10:05:17;13.1;;;11.1;;
79592;SDS011;69074;45.164;9.704;2023-05-20T10:07:48;13.1;;;11.1;;
79592;SDS011;69074;45.164;9.704;2023-05-20T10:10:10;13.1;;;11.1;;
79592;SDS011;69074;45.164;9.704;2023-05-20T10:12:33;13.1;;;11.1;;
79592;SDS011;69074;45.164;9.704;2023-05-20T10:14:59;13.1;;;11.1;;
79592;SDS011;69074;45.164;9.704;2023-05-20T10:17:24;13.1;;;11.1;;
79592;SDS011;69074;45.164;9.704;2023-05-20T10:19:47;13.4;;;12.0;;
79592;SDS011;69074;45.164;9.704;2023-05-20T10:22:12;13.4;;;12.0;;
79592;SDS011;69074;45.164;9.704;2023-05-20T10:24:38;13.4;;;12.0;;
79592;SDS011;69074;45.164;9.704;2023-05-20T10:27:03;13.4;;;12.0;;
79592;SDS011;69074;45.164;9.704;2023-05-20T10:29:27;13.4;;;12.0;;
79592;SDS011;69074;45.164;9.704;2023-05-20T10:31:52;13.4;;;12.0;;
79592;SDS011;69074;45.164;9.704;2023-05-20T10:34:18;13.6;;;10.9;;
79592;SDS011;69074;45.164;9.704;2023-05-20T10:36:44;13.6;;;10.9;;
79592;SDS011;69074;45.164;9.704;2023-05-20T10:39:07;13.6;;;10.9;;
79592;SDS011;69074;45.164;9.704;2023-05-20T10:41:32;13.6;;;10.9;;
79592;SDS011;69074;45.164;9.704;2023-05-20T10:43:59;13.6;;;10.9;;
79592;SDS011;69074;45.164;9.704;2023-05-20T10:46:22;13.6;;;10.9;;
79592;SDS011;69074;45.164;9.704;2023-05-20T10:48:47;13.6;;;10.9;;
79592;SDS011;69074;45.164;9.704;2023-05-20T10:51:13;12.4;;;9.8;;
79592;SDS011;69074;45.164;9.704;2023-05-20T10:53:37;12.4;;;9.8;;
79592;SDS011;69074;45.164;9.704;2023-05-20T10:56:02;12.4;;;9.8;;
79592;SDS011;69074;45.164;9.704;2023-05-20T10:58:34;12.4;;;9.8;;
79592;SDS011;69074;45.164;9.704;2023-05-20T11:00:53;12.4;;;9.8;;
79592;SDS011;69074;45.164;9.704;2023-05-20T11:03:17;12.4;;;9.8;;
79592;SDS011;69074;45.164;9.704;2023-05-20T11:05:43;11.1;;;10.0;;
79592;SDS011;69074;45.164;9.704;2023-05-20T11:08:08;11.1;;;10.0;;
79592;SDS011;69074;45.164;9.704;2023-05-20T11:10:32;11.1;;;10.0;;
79592;SDS011;69074;45.164;9.704;2023-05-20T11:12:57;11.1;;;10.0;;
79592;SDS011;69074;45.164;9.704;2023-05-20T11:15:22;11.1;;;10.0;;
79592;SDS011;69074;45.164;9.704;2023-05-20T11:17:51;11.1;;;10.0;;
79592;SDS011;69074;45.164;9.704;2023-05-20T11:20:13;10.5;;;9.3;;
79592;SDS011;69074;45.164;9.704;2023-05-20T11:22:38;10.5;;;9.3;;
79592;SDS011;69074;45.164;9.704;2023-05-20T11:25:04;10.5;;;9.3;;
79592;SDS011;69074;45.164;9.704;2023-05-20T11:27:27;10.5;;;9.3;;
79592;SDS011;69074;45.164;9.704;2023-05-20T11:29:52;10.5;;;9.3;;
79592;SDS011;69074;45.164;9.704;2023-05-20T11:32:18;10.5;;;9.3;;
79592;SDS011;69074;45.164;9.704;2023-05-20T11:34:42;10.8;;;9.2;;
79592;SDS011;69074;45.164;9.704;2023-05-20T11:37:08;10.8;;;9.2;;
79592;SDS011;69074;45.164;9.704;2023-05-20T11:39:32;10.8;;;9.2;;
79592;SDS011;69074;45.164;9.704;2023-05-20T11:41:57;10.8;;;9.2;;
79592;SDS011;69074;45.164;9.704;2023-05-20T11:44:23;10.8;;;9.2;;
79592;SDS011;69074;45.164;9.704;2023-05-20T11:46:47;10.8;;;9.2;;
79592;SDS011;69074;45.164;9.704;2023-05-20T11:49:12;11.2;;;9.5;;
79592;SDS011;69074;45.164;9.704;2023-05-20T11:51:37;11.2;;;9.5;;
79592;SDS011;69074;45.164;9.704;2023-05-20T11:54:03;11.2;;;9.5;;
79592;SDS011;69074;45.164;9.704;2023-05-20T11:56:27;11.2;;;9.5;;
79592;SDS011;69074;45.164;9.704;2023-05-20T11:58:52;11.2;;;9.5;;
79592;SDS011;69074;45.164;9.704;2023-05-20T12:01:17;11.2;;;9.5;;
79592;SDS011;69074;45.164;9.704;2023-05-20T12:03:42;11.2;;;9.5;;
79592;SDS011;69074;45.164;9.704;2023-05-20T12:06:10;10.0;;;8.9;;
79592;SDS011;69074;45.164;9.704;2023-05-20T12:08:32;10.0;;;8.9;;
79592;SDS011;69074;45.164;9.704;2023-05-20T12:10:57;10.0;;;8.9;;
79592;SDS011;69074;45.164;9.704;2023-05-20T12:13:22;10.0;;;8.9;;
79592;SDS011;69074;45.164;9.704;2023-05-20T12:15:47;10.0;;;8.9;;
79592;SDS011;69074;45.164;9.704;2023-05-20T12:18:12;10.0;;;8.9;;
79592;SDS011;69074;45.164;9.704;2023-05-20T12:20:37;8.8;;;7.8;;
79592;SDS011;69074;45.164;9.704;2023-05-20T12:23:02;8.8;;;7.8;;
79592;SDS011;69074;45.164;9.704;2023-05-20T12:25:27;8.8;;;7.8;;
79592;SDS011;69074;45.164;9.704;2023-05-20T12:27:52;8.8;;;7.8;;
79592;SDS011;69074;45.164;9.704;2023-05-20T12:30:18;8.8;;;7.8;;
79592;SDS011;69074;45.164;9.704;2023-05-20T12:32:42;8.8;;;7.8;;
79592;SDS011;69074;45.164;9.704;2023-05-20T12:35:08;10.4;;;8.9;;
79592;SDS011;69074;45.164;9.704;2023-05-20T12:37:32;10.4;;;8.9;;
79592;SDS011;69074;45.164;9.704;2023-05-20T12:39:58;10.4;;;8.9;;
79592;SDS011;69074;45.164;9.704;2023-05-20T12:42:22;10.4;;;8.9;;
79592;SDS011;69074;45.164;9.704;2023-05-20T12:44:47;10.4;;;8.9;;
79592;SDS011;69074;45.164;9.704;2023-05-20T12:47:12;10.4;;;8.9;;
79592;SDS011;69074;45.164;9.704;2023-05-20T12:49:37;9.0;;;8.1;;
79592;SDS011;69074;45.164;9.704;2023-05-20T12:52:02;9.0;;;8.1;;
79592;SDS011;69074;45.164;9.704;2023-05-20T12:54:27;9.0;;;8.1;;
79592;SDS011;69074;45.164;9.704;2023-05-20T12:56:52;9.0;;;8.1;;
79592;SDS011;69074;45.164;9.704;2023-05-20T12:59:17;9.0;;;8.1;;
79592;SDS011;69074;45.164;9.704;2023-05-20T13:01:42;9.0;;;8.1;;
79592;SDS011;69074;45.164;9.704;2023-05-20T13:04:07;8.5;;;7.6;;
79592;SDS011;69074;45.164;9.704;2023-05-20T13:06:33;8.5;;;7.6;;
79592;SDS011;69074;45.164;9.704;2023-05-20T13:08:57;8.5;;;7.6;;
79592;SDS011;69074;45.164;9.704;2023-05-20T13:11:22;8.5;;;7.6;;
79592;SDS011;69074;45.164;9.704;2023-05-20T13:13:47;8.5;;;7.6;;
79592;SDS011;69074;45.164;9.704;2023-05-20T13:16:12;8.5;;;7.6;;
79592;SDS011;69074;45.164;9.704;2023-05-20T13:18:37;8.5;;;7.6;;
79592;SDS011;69074;45.164;9.704;2023-05-20T13:21:02;9.3;;;8.3;;
79592;SDS011;69074;45.164;9.704;2023-05-20T13:23:27;9.3;;;8.3;;
79592;SDS011;69074;45.164;9.704;2023-05-20T13:25:52;9.3;;;8.3;;
79592;SDS011;69074;45.164;9.704;2023-05-20T13:28:17;9.3;;;8.3;;
79592;SDS011;69074;45.164;9.704;2023-05-20T13:30:43;9.3;;;8.3;;
79592;SDS011;69074;45.164;9.704;2023-05-20T13:33:07;9.3;;;8.3;;
79592;SDS011;69074;45.164;9.704;2023-05-20T13:35:33;9.0;;;8.1;;
79592;SDS011;69074;45.164;9.704;2023-05-20T13:37:57;9.0;;;8.1;;
79592;SDS011;69074;45.164;9.704;2023-05-20T13:40:23;9.0;;;8.1;;
79592;SDS011;69074;45.164;9.704;2023-05-20T13:42:47;9.0;;;8.1;;
79592;SDS011;69074;45.164;9.704;2023-05-20T13:45:12;9.0;;;8.1;;
79592;SDS011;69074;45.164;9.704;2023-05-20T13:47:38;9.0;;;8.1;;
79592;SDS011;69074;45.164;9.704;2023-05-20T13:50:03;9.5;;;8.5;;
79592;SDS011;69074;45.164;9.704;2023-05-20T13:52:27;9.5;;;8.5;;
79592;SDS011;69074;45.164;9.704;2023-05-20T13:54:53;9.5;;;8.5;;
79592;SDS011;69074;45.164;9.704;2023-05-20T13:57:18;9.5;;;8.5;;
79592;SDS011;69074;45.164;9.704;2023-05-20T13:59:43;9.5;;;8.5;;
79592;SDS011;69074;45.164;9.704;2023-05-20T14:02:08;9.5;;;8.5;;
79592;SDS011;69074;45.164;9.704;2023-05-20T14:04:33;10.4;;;8.0;;
79592;SDS011;69074;45.164;9.704;2023-05-20T14:06:58;10.4;;;8.0;;
79592;SDS011;69074;45.164;9.704;2023-05-20T14:09:23;10.4;;;8.0;;
79592;SDS011;69074;45.164;9.704;2023-05-20T14:11:48;10.4;;;8.0;;
79592;SDS011;69074;45.164;9.704;2023-05-20T14:14:13;10.4;;;8.0;;
79592;SDS011;69074;45.164;9.704;2023-05-20T14:16:38;10.4;;;8.0;;
79592;SDS011;69074;45.164;9.704;2023-05-20T14:19:03;10.4;;;8.0;;
79592;SDS011;69074;45.164;9.704;2023-05-20T14:21:28;8.0;;;7.2;;
79592;SDS011;69074;45.164;9.704;2023-05-20T14:23:53;8.0;;;7.2;;
79592;SDS011;69074;45.164;9.704;2023-05-20T14:26:18;8.0;;;7.2;;
79592;SDS011;69074;45.164;9.704;2023-05-20T14:28:43;8.0;;;7.2;;
79592;SDS011;69074;45.164;9.704;2023-05-20T14:31:08;8.0;;;7.2;;
79592;SDS011;69074;45.164;9.704;2023-05-20T14:33:33;8.0;;;7.2;;
79592;SDS011;69074;45.164;9.704;2023-05-20T14:35:58;8.6;;;7.7;;
79592;SDS011;69074;45.164;9.704;2023-05-20T14:38:23;8.6;;;7.7;;
79592;SDS011;69074;45.164;9.704;2023-05-20T14:40:48;8.6;;;7.7;;
79592;SDS011;69074;45.164;9.704;2023-05-20T14:43:13;8.6;;;7.7;;